Center Hill Observed Data For Previous 48 Hours

Caption
Day and Hour Reservoir Elevation (behind dam)* Tailwater Elevation (below dam)* Average Hourly Discharge*
9/21/2017 1 AM CDT 632.73 478.03 250
9/21/2017 2 AM CDT 632.73 478.03 250
9/21/2017 3 AM CDT 632.74 478.04 250
9/21/2017 4 AM CDT 632.74 478.04 250
9/21/2017 5 AM CDT 632.74 478.04 250
9/21/2017 6 AM CDT 632.74 478.04 250
9/21/2017 7 AM CDT 632.74 478.04 250
9/21/2017 8 AM CDT 632.74 478.14 250
9/21/2017 9 AM CDT 632.74 478.14 250
9/21/2017 10 AM CDT 632.74 478.14 250
9/21/2017 11 AM CDT 632.74 478.14 250
9/21/2017 12 PM CDT 632.75 478.15 250
9/21/2017 1 PM CDT 632.75 483.45 5,210
9/21/2017 2 PM CDT 632.74 484.14 5,235
9/21/2017 3 PM CDT 632.74 484.24 5,235
9/21/2017 4 PM CDT 632.74 484.54 5,255
9/21/2017 5 PM CDT 632.72 484.12 5,235
9/21/2017 6 PM CDT 632.71 480.91 250
9/21/2017 7 PM CDT 632.72 479.52 250
9/21/2017 8 PM CDT 632.71 478.81 250
9/21/2017 9 PM CDT 632.71 478.41 250
9/21/2017 10 PM CDT 632.71 478.21 250
9/21/2017 11 PM CDT 632.71 478.11 250
9/22/2017 12 AM CDT 632.72 478.12 250
9/22/2017 1 AM CDT 632.71 478.11 250
9/22/2017 2 AM CDT 632.71 478.11 250
9/22/2017 3 AM CDT 632.72 478.02 250
9/22/2017 4 AM CDT 632.72 478.02 250
9/22/2017 5 AM CDT 632.72 478.02 250
9/22/2017 6 AM CDT 632.72 478.02 250
9/22/2017 7 AM CDT 632.73 478.03 250
9/22/2017 8 AM CDT 632.73 478.03 250
9/22/2017 9 AM CDT 632.73 478.03 250
9/22/2017 10 AM CDT 632.72 483.42 5,210
9/22/2017 11 AM CDT 632.72 484.12 5,235
9/22/2017 12 PM CDT 632.71 484.31 5,235
9/22/2017 1 PM CDT 632.69 484.49 5,255
9/22/2017 2 PM CDT 632.68 484.68 5,255
9/22/2017 3 PM CDT 632.66 484.66 5,255
9/22/2017 4 PM CDT 632.64 484.74 5,255
9/22/2017 5 PM CDT 632.62 484.82 5,255
9/22/2017 6 PM CDT 632.61 480.81 250
9/22/2017 7 PM CDT 632.60 479.60 250
9/22/2017 8 PM CDT 632.60 478.80 250
9/22/2017 9 PM CDT 632.60 478.40 250

Elevations are in feet above sea level. Discharges are in cubic feet per second and are reported at the end of the hour.